Time;durP1;ratioP1;P1;durP2;ratioP2;P2;SDS_P1;SDS_P2;PMS_P1;PMS_P2;Temp;Humidity;BMP_temperature;BMP_pressure;BME280_temperature;BME280_humidity;BME280_pressure;Samples;Min_cycle;Max_cycle;Signal;HPM_P1;HPM_P2
2022/09/13 00:02:22;;;;;;;5.30;4.18;;;;;;;10.88;100.00;100520.91;4992642;28;20042;-85
2022/09/13 00:04:49;;;;;;;6.20;4.20;;;;;;;10.94;100.00;100510.19;4988918;28;20037;-84
2022/09/13 00:07:16;;;;;;;5.38;3.95;;;;;;;11.06;100.00;100501.94;4992187;28;20128;-85
2022/09/13 00:09:43;;;;;;;4.43;4.03;;;;;;;11.04;100.00;100516.13;5002939;28;20438;-85
2022/09/13 00:12:09;;;;;;;4.88;4.38;;;;;;;11.11;100.00;100507.13;4982599;28;20036;-84
2022/09/13 00:14:36;;;;;;;4.57;4.13;;;;;;;11.07;100.00;100511.59;4999252;28;20049;-85
2022/09/13 00:17:03;;;;;;;4.90;4.15;;;;;;;11.17;100.00;100502.53;4987582;28;20053;-86
2022/09/13 00:19:29;;;;;;;5.05;4.38;;;;;;;11.11;100.00;100492.13;4995464;28;20046;-84
2022/09/13 00:21:56;;;;;;;4.60;3.97;;;;;;;11.10;100.00;100497.44;4980775;28;20034;-84
2022/09/13 00:24:23;;;;;;;4.95;4.00;;;;;;;11.18;100.00;100488.44;5005281;28;20538;-87
2022/09/13 00:26:49;;;;;;;4.82;4.35;;;;;;;11.13;100.00;100487.66;5001878;28;20578;-86
2022/09/13 00:29:16;;;;;;;4.75;4.13;;;;;;;11.18;100.00;100472.56;4993416;28;20056;-84
2022/09/13 00:31:43;;;;;;;4.07;3.67;;;;;;;11.20;100.00;100469.88;5015103;28;20037;-85
2022/09/13 00:34:10;;;;;;;5.60;5.10;;;;;;;11.36;100.00;100465.06;5006936;28;20049;-85
2022/09/13 00:36:36;;;;;;;5.68;4.35;;;;;;;11.31;100.00;100466.94;4986708;28;20049;-84
2022/09/13 00:39:03;;;;;;;5.22;4.72;;;;;;;11.27;100.00;100466.16;4990983;28;20038;-85
2022/09/13 00:41:30;;;;;;;5.30;4.05;;;;;;;11.28;100.00;100452.91;5002757;28;20044;-85
2022/09/13 00:43:59;;;;;;;5.30;4.20;;;;;;;11.34;100.00;100454.50;5019718;28;20037;-84
2022/09/13 00:46:47;;;;;;;5.00;4.50;;;;;;;11.27;100.00;100452.94;4980367;28;20038;-86
2022/09/13 00:49:35;;;;;;;4.78;4.22;;;;;;;11.19;100.00;100455.78;4980387;28;20053;-86
2022/09/13 00:52:06;;;;;;;5.25;4.20;;;;;;;11.14;100.00;100451.53;4979782;28;20053;-85
2022/09/13 00:54:41;;;;;;;5.32;4.07;;;;;;;11.13;100.00;100448.00;4994849;28;20042;-85
2022/09/13 00:57:09;;;;;;;5.32;4.15;;;;;;;11.12;100.00;100443.63;4991297;28;20100;-87
2022/09/13 00:59:42;;;;;;;4.53;3.90;;;;;;;11.13;100.00;100439.22;5005693;28;20061;-84
2022/09/13 01:02:09;;;;;;;5.07;3.90;;;;;;;11.12;100.00;100429.56;5016026;28;20037;-84
2022/09/13 01:04:37;;;;;;;4.68;4.15;;;;;;;11.11;100.00;100438.41;4992511;28;20816;-86
2022/09/13 01:07:07;;;;;;;4.60;4.05;;;;;;;11.01;100.00;100443.03;4990442;28;20502;-84
2022/09/13 01:09:36;;;;;;;4.45;3.95;;;;;;;11.02;100.00;100434.22;4992234;28;20049;-85
2022/09/13 01:12:34;;;;;;;4.57;4.07;;;;;;;10.98;100.00;100427.25;4991356;28;20407;-84
2022/09/13 01:15:03;;;;;;;4.47;3.88;;;;;;;10.95;100.00;100437.91;5007613;28;20049;-86
2022/09/13 01:17:31;;;;;;;4.78;4.25;;;;;;;10.97;100.00;100433.44;4991343;28;20046;-85
2022/09/13 01:19:58;;;;;;;4.40;4.00;;;;;;;10.94;100.00;100439.69;4970532;28;20038;-84
2022/09/13 01:22:50;;;;;;;4.57;4.13;;;;;;;10.91;100.00;100423.03;4984519;28;20423;-85
2022/09/13 01:25:29;;;;;;;5.97;4.43;;;;;;;10.94;100.00;100420.31;4990211;28;20053;-86
2022/09/13 01:28:29;;;;;;;4.90;4.00;;;;;;;10.88;100.00;100425.75;5001932;28;20056;-85
2022/09/13 01:31:03;;;;;;;4.20;3.80;;;;;;;10.86;100.00;100417.00;5007393;28;20495;-85
2022/09/13 01:33:43;;;;;;;4.38;3.97;;;;;;;10.87;100.00;100405.53;5004771;28;20045;-84
2022/09/13 01:36:31;;;;;;;4.32;3.92;;;;;;;10.82;100.00;100402.13;4994540;28;20064;-85
2022/09/13 01:39:26;;;;;;;7.93;4.43;;;;;;;10.89;100.00;100385.22;5009077;28;20057;-84
2022/09/13 01:42:16;;;;;;;5.88;3.90;;;;;;;10.86;100.00;100388.81;4981738;28;20046;-87
2022/09/13 01:45:02;;;;;;;7.82;4.43;;;;;;;10.87;100.00;100384.38;4986694;28;20096;-84
2022/09/13 01:47:51;;;;;;;4.97;3.83;;;;;;;10.92;100.00;100385.97;4994895;28;20045;-85
2022/09/13 01:50:23;;;;;;;5.90;4.18;;;;;;;10.92;100.00;100385.97;4996686;28;20096;-83
2022/09/13 01:53:17;;;;;;;5.15;4.50;;;;;;;11.00;100.00;100384.00;5009966;28;20041;-84
2022/09/13 01:55:47;;;;;;;4.97;4.35;;;;;;;10.89;100.00;100369.34;5009521;28;20068;-84
2022/09/13 01:58:36;;;;;;;5.55;4.35;;;;;;;10.90;100.00;100368.44;4981026;28;20045;-84
2022/09/13 02:01:07;;;;;;;4.40;4.00;;;;;;;10.96;100.00;100371.78;4971223;28;20044;-83
2022/09/13 02:03:57;;;;;;;4.30;3.88;;;;;;;10.94;100.00;100364.81;5012216;28;20038;-83
2022/09/13 02:06:31;;;;;;;4.40;4.00;;;;;;;10.85;100.00;100368.56;4994981;28;20598;-84
2022/09/13 02:09:08;;;;;;;4.50;4.10;;;;;;;10.80;100.00;100370.47;5012921;28;20053;-84
2022/09/13 02:11:37;;;;;;;4.47;4.07;;;;;;;10.79;100.00;100368.72;4994598;28;20486;-84
2022/09/13 02:14:14;;;;;;;4.63;3.83;;;;;;;10.79;100.00;100360.78;4980439;28;20088;-84
2022/09/13 02:17:03;;;;;;;4.93;3.90;;;;;;;10.75;100.00;100360.91;5003690;28;20034;-85
2022/09/13 02:19:37;;;;;;;4.30;3.90;;;;;;;10.71;100.00;100361.00;4980373;28;20407;-84
2022/09/13 02:22:05;;;;;;;6.05;4.40;;;;;;;10.75;100.00;100360.91;4992576;28;20069;-84
2022/09/13 02:24:35;;;;;;;3.83;3.42;;;;;;;10.80;100.00;100365.16;4991806;28;20044;-84
2022/09/13 02:27:07;;;;;;;5.00;3.97;;;;;;;10.78;100.00;100367.00;4992051;28;20046;-84
2022/09/13 02:29:36;;;;;;;4.60;3.97;;;;;;;10.75;100.00;100367.06;4980021;28;20046;-85
2022/09/13 02:32:08;;;;;;;4.68;4.07;;;;;;;10.76;100.00;100352.94;4968734;28;20556;-83
2022/09/13 02:34:46;;;;;;;5.65;4.13;;;;;;;10.81;100.00;100344.91;4978750;28;20053;-83
2022/09/13 02:37:12;;;;;;;5.00;4.38;;;;;;;10.85;100.00;100336.00;4976213;28;20112;-84
2022/09/13 02:39:46;;;;;;;4.38;3.97;;;;;;;10.92;100.00;100334.91;4995332;28;20483;-83
2022/09/13 02:42:16;;;;;;;;;;;;;;;10.87;100.00;100328.88;4979825;28;20089;-85
2022/09/13 02:44:45;;;;;;;5.97;4.13;;;;;;;10.93;100.00;100323.41;4992516;28;20349;-84
2022/09/13 02:47:49;;;;;;;4.85;4.28;;;;;;;10.98;100.00;100319.75;5015379;28;20038;-85
2022/09/13 02:50:22;;;;;;;7.07;4.05;;;;;;;11.04;100.00;100324.00;5000464;28;20468;-84
2022/09/13 02:52:57;;;;;;;4.38;3.97;;;;;;;11.13;100.00;100318.47;4995530;28;20407;-85
2022/09/13 02:56:13;;;;;;;5.22;4.32;;;;;;;11.12;100.00;100321.16;4985652;28;20502;-84
2022/09/13 02:59:03;;;;;;;4.15;3.75;;;;;;;11.18;100.00;100311.28;4995676;28;20049;-84
2022/09/13 03:01:30;;;;;;;4.78;4.28;;;;;;;11.19;100.00;100312.13;4977663;28;20107;-84
2022/09/13 03:03:56;;;;;;;4.70;4.13;;;;;;;11.23;100.00;100304.06;4993797;28;20041;-85
2022/09/13 03:06:27;;;;;;;9.40;4.60;;;;;;;11.31;100.00;100293.25;4992643;28;20057;-84
2022/09/13 03:08:57;;;;;;;4.90;4.40;;;;;;;11.38;100.00;100297.47;4984457;28;20043;-84
2022/09/13 03:11:49;;;;;;;5.50;4.43;;;;;;;11.39;100.00;100291.25;4974519;28;20043;-85
2022/09/13 03:14:46;;;;;;;4.90;3.97;;;;;;;11.44;100.00;100288.50;4974746;28;20491;-84
2022/09/13 03:18:11;;;;;;;5.38;4.88;;;;;;;11.45;100.00;100275.22;4988969;28;20056;-85
2022/09/13 03:20:55;;;;;;;5.70;4.30;;;;;;;11.48;100.00;100279.53;4937489;28;20043;-84
2022/09/13 03:23:33;;;;;;;5.13;4.18;;;;;;;11.50;100.00;100275.06;4952252;28;20513;-84
2022/09/13 03:26:33;;;;;;;4.47;4.07;;;;;;;11.53;100.00;100267.03;4991403;28;20115;-84
2022/09/13 03:29:12;;;;;;;5.10;4.32;;;;;;;11.56;100.00;100265.16;4998515;28;20049;-84
2022/09/13 03:31:53;;;;;;;5.47;4.35;;;;;;;11.57;100.00;100255.44;5012015;28;20057;-84
2022/09/13 03:34:46;;;;;;;4.35;3.95;;;;;;;11.66;100.00;100244.56;4999130;28;20132;-85
2022/09/13 03:37:19;;;;;;;4.07;3.72;;;;;;;11.65;100.00;100250.78;5009084;28;20133;-84
2022/09/13 03:39:52;;;;;;;5.22;4.22;;;;;;;11.69;100.00;100247.13;4993896;28;20033;-84
2022/09/13 03:42:24;;;;;;;4.90;4.30;;;;;;;11.67;100.00;100245.44;5025158;28;20056;-86
2022/09/13 03:44:52;;;;;;;4.40;3.90;;;;;;;11.78;100.00;100244.19;4992394;28;20492;-85
2022/09/13 03:47:20;;;;;;;4.97;3.80;;;;;;;11.78;100.00;100235.41;5008861;28;20097;-86
2022/09/13 03:49:49;;;;;;;4.53;3.80;;;;;;;11.82;100.00;100229.97;4994415;28;20497;-85
2022/09/13 03:52:16;;;;;;;5.38;3.92;;;;;;;11.88;100.00;100233.34;4974769;28;20045;-84
2022/09/13 03:54:42;;;;;;;4.72;4.28;;;;;;;11.85;100.00;100226.34;4977387;28;20056;-85
2022/09/13 03:57:22;;;;;;;4.85;4.35;;;;;;;11.98;100.00;100230.34;4990115;28;20042;-85
2022/09/13 03:59:57;;;;;;;6.70;3.60;;;;;;;12.09;100.00;100225.53;4994408;28;20491;-85
2022/09/13 04:02:24;;;;;;;4.22;3.83;;;;;;;12.03;100.00;100217.81;4978050;28;20093;-84
2022/09/13 04:04:52;;;;;;;4.43;4.03;;;;;;;12.04;100.00;100211.59;4993603;28;20045;-85
2022/09/13 04:07:20;;;;;;;4.70;4.18;;;;;;;12.04;100.00;100202.78;5013099;28;20487;-84
2022/09/13 04:09:47;;;;;;;6.10;4.32;;;;;;;12.10;100.00;100203.44;4982013;28;20044;-84
2022/09/13 04:12:15;;;;;;;6.95;4.60;;;;;;;12.09;100.00;100207.00;4985681;28;20049;-84
2022/09/13 04:14:45;;;;;;;4.18;3.78;;;;;;;12.19;100.00;100207.56;5001119;28;20099;-85
2022/09/13 04:17:12;;;;;;;4.13;3.72;;;;;;;12.16;100.00;100205.00;4974207;28;20097;-84
2022/09/13 04:19:39;;;;;;;4.00;3.60;;;;;;;12.27;100.00;100202.84;5009945;28;20038;-84
2022/09/13 04:22:06;;;;;;;4.82;3.83;;;;;;;12.21;100.00;100195.16;4970530;28;20080;-83
2022/09/13 04:24:37;;;;;;;4.10;3.70;;;;;;;12.29;100.00;100186.94;5013457;28;20037;-85
2022/09/13 04:27:05;;;;;;;4.70;3.88;;;;;;;12.33;100.00;100186.75;4981989;28;20053;-84
2022/09/13 04:29:32;;;;;;;4.03;3.53;;;;;;;12.26;100.00;100173.78;5000013;28;20046;-84
2022/09/13 04:31:59;;;;;;;5.75;4.13;;;;;;;12.43;100.00;100167.88;4974433;28;20050;-84
2022/09/13 04:34:25;;;;;;;5.00;3.97;;;;;;;12.44;100.00;100167.81;4990187;28;20050;-84
2022/09/13 04:36:52;;;;;;;4.25;3.85;;;;;;;12.47;100.00;100166.88;4991847;28;20073;-84
2022/09/13 04:39:20;;;;;;;5.25;4.03;;;;;;;12.35;100.00;100166.38;4981551;28;20049;-84
2022/09/13 04:41:47;;;;;;;5.07;4.07;;;;;;;12.33;100.00;100173.50;4992739;28;20049;-84
2022/09/13 04:44:15;;;;;;;4.68;4.00;;;;;;;12.40;100.00;100171.50;4992162;28;20565;-84
2022/09/13 04:46:42;;;;;;;6.93;3.80;;;;;;;12.43;100.00;100165.22;5000941;28;20064;-83
2022/09/13 04:49:10;;;;;;;4.65;3.72;;;;;;;12.44;100.00;100156.34;4978153;28;20057;-85
2022/09/13 04:51:37;;;;;;;3.90;3.50;;;;;;;12.43;100.00;100157.28;4976242;28;20045;-84
2022/09/13 04:54:04;;;;;;;5.55;4.47;;;;;;;12.53;100.00;100156.06;4994076;28;20495;-84
2022/09/13 04:56:31;;;;;;;7.50;4.22;;;;;;;12.54;100.00;100149.84;4987418;28;20048;-84
2022/09/13 04:58:57;;;;;;;4.70;4.20;;;;;;;12.58;100.00;100146.13;4990415;28;20046;-85
2022/09/13 05:01:24;;;;;;;5.55;3.83;;;;;;;12.53;100.00;100141.03;5002769;28;20057;-85
2022/09/13 05:03:54;;;;;;;5.55;3.92;;;;;;;12.55;100.00;100144.47;4977271;28;20088;-84
2022/09/13 05:06:21;;;;;;;4.68;4.28;;;;;;;12.59;100.00;100140.78;4985782;28;20041;-84
2022/09/13 05:08:51;;;;;;;4.38;3.97;;;;;;;12.58;100.00;100143.47;5000908;28;20046;-84
2022/09/13 05:11:18;;;;;;;4.88;3.75;;;;;;;12.63;100.00;100141.53;4983055;28;20041;-84
2022/09/13 05:13:53;;;;;;;6.75;4.30;;;;;;;12.69;100.00;100141.28;5013836;28;20045;-85
2022/09/13 05:16:21;;;;;;;3.72;3.42;;;;;;;12.59;100.00;100139.91;4995761;28;20503;-84
2022/09/13 05:18:48;;;;;;;5.22;3.88;;;;;;;12.59;100.00;100134.59;5010548;28;20112;-84
2022/09/13 05:21:15;;;;;;;4.50;3.80;;;;;;;12.66;100.00;100133.47;4960753;28;20504;-85
2022/09/13 05:23:42;;;;;;;4.35;3.92;;;;;;;12.56;100.00;100124.13;4992336;28;20037;-85
2022/09/13 05:26:09;;;;;;;4.40;4.00;;;;;;;12.61;100.00;100133.66;4986878;28;20046;-85
2022/09/13 05:28:36;;;;;;;6.72;4.45;;;;;;;12.63;100.00;100130.94;4997070;28;20533;-86
2022/09/13 05:31:06;;;;;;;4.68;4.18;;;;;;;12.62;100.00;100137.16;4994957;28;20042;-85
2022/09/13 05:33:35;;;;;;;5.13;4.03;;;;;;;12.61;100.00;100132.75;5003500;28;20491;-85
2022/09/13 05:36:04;;;;;;;5.47;3.92;;;;;;;12.61;100.00;100133.66;4982841;28;20650;-85
2022/09/13 05:38:32;;;;;;;6.07;3.67;;;;;;;12.60;100.00;100131.91;5005139;28;20138;-84
2022/09/13 05:41:02;;;;;;;4.55;4.15;;;;;;;12.70;100.00;100135.09;4997804;28;20049;-84
2022/09/13 05:43:30;;;;;;;5.07;4.40;;;;;;;12.71;100.00;100131.50;4989787;28;20499;-86
2022/09/13 05:46:02;;;;;;;6.15;4.47;;;;;;;12.80;100.00;100149.72;5015125;28;20050;-85
2022/09/13 05:48:29;;;;;;;5.45;4.88;;;;;;;12.77;100.00;100159.56;4975550;28;20569;-86
2022/09/13 05:50:56;;;;;;;5.32;4.03;;;;;;;12.77;100.00;100160.41;4996420;28;20053;-85
2022/09/13 05:53:24;;;;;;;5.13;4.65;;;;;;;12.81;100.00;100164.69;5013012;28;20065;-85
2022/09/13 05:55:51;;;;;;;4.68;4.20;;;;;;;12.93;100.00;100158.91;4979069;28;20104;-85
2022/09/13 05:58:17;;;;;;;4.80;4.30;;;;;;;12.91;100.00;100162.56;4977467;28;20072;-85
2022/09/13 06:00:44;;;;;;;5.32;4.63;;;;;;;12.88;100.00;100160.91;5022152;28;20038;-86
2022/09/13 06:03:11;;;;;;;5.85;4.47;;;;;;;12.89;100.00;100156.47;4980170;28;20105;-85
2022/09/13 06:05:37;;;;;;;5.25;4.63;;;;;;;12.99;100.00;100154.31;4967542;28;20042;-86
2022/09/13 06:08:04;;;;;;;5.05;4.40;;;;;;;12.95;100.00;100149.16;4995612;28;20037;-85
2022/09/13 06:10:30;;;;;;;6.28;4.57;;;;;;;12.99;100.00;100149.88;4995696;28;20038;-86
2022/09/13 06:12:57;;;;;;;5.72;4.40;;;;;;;12.94;100.00;100147.38;5084029;22;20058;-81
2022/09/13 06:15:24;;;;;;;5.57;4.65;;;;;;;12.97;100.00;100157.03;4957473;28;20046;-81
2022/09/13 06:17:51;;;;;;;4.55;4.07;;;;;;;12.97;100.00;100149.09;4959284;28;20058;-80
2022/09/13 06:20:17;;;;;;;8.18;4.93;;;;;;;12.92;100.00;100143.94;4974979;28;20522;-80
2022/09/13 06:22:46;;;;;;;5.32;4.63;;;;;;;12.98;100.00;100142.00;4967474;28;20051;-81
2022/09/13 06:25:13;;;;;;;6.75;5.15;;;;;;;12.99;100.00;100138.41;4966008;28;20046;-81
2022/09/13 06:27:40;;;;;;;5.38;4.82;;;;;;;13.02;100.00;100146.22;5004656;28;20077;-80
2022/09/13 06:30:07;;;;;;;6.43;4.88;;;;;;;12.95;100.00;100137.69;4976409;28;20042;-81
2022/09/13 06:32:34;;;;;;;5.53;5.03;;;;;;;13.04;100.00;100142.63;4975497;28;20038;-81
2022/09/13 06:35:01;;;;;;;6.15;5.55;;;;;;;13.06;100.00;100124.00;4989631;28;20042;-82
2022/09/13 06:37:27;;;;;;;6.47;5.80;;;;;;;13.23;100.00;100126.88;4987585;28;20416;-81
2022/09/13 06:39:54;;;;;;;6.25;5.63;;;;;;;13.27;100.00;100123.16;4943565;28;20062;-82
2022/09/13 06:42:21;;;;;;;6.60;5.90;;;;;;;13.41;100.00;100130.56;4977804;28;20577;-82
2022/09/13 06:44:47;;;;;;;6.78;5.25;;;;;;;13.41;100.00;100125.28;5003685;28;20122;-81
2022/09/13 06:47:14;;;;;;;7.05;5.40;;;;;;;13.51;100.00;100130.13;5005096;28;20068;-80
2022/09/13 06:49:41;;;;;;;7.82;5.40;;;;;;;13.66;100.00;100111.84;4974770;28;20113;-81
2022/09/13 06:52:08;;;;;;;6.70;6.03;;;;;;;13.72;100.00;100109.81;4962260;28;20161;-81
2022/09/13 06:54:34;;;;;;;8.10;5.68;;;;;;;13.81;100.00;100108.56;4983299;28;20560;-81
2022/09/13 06:57:02;;;;;;;7.07;5.72;;;;;;;13.92;100.00;100111.59;5005099;28;20041;-81
2022/09/13 06:59:29;;;;;;;7.00;5.60;;;;;;;14.02;100.00;100098.78;4961014;28;20061;-82
2022/09/13 07:01:55;;;;;;;7.38;5.43;;;;;;;14.17;100.00;100099.91;4962713;28;20554;-81
2022/09/13 07:04:22;;;;;;;5.90;5.30;;;;;;;14.23;100.00;100095.19;5002688;28;20443;-80
2022/09/13 07:06:49;;;;;;;5.72;5.13;;;;;;;14.30;100.00;100094.00;5023327;28;20046;-81
2022/09/13 07:09:20;;;;;;;6.55;5.40;;;;;;;14.36;100.00;100093.69;4990786;28;20607;-81
2022/09/13 07:11:53;;;;;;;9.32;6.00;;;;;;;14.54;100.00;100089.38;4973355;28;20070;-82
2022/09/13 07:14:25;;;;;;;9.32;5.70;;;;;;;14.53;100.00;100100.09;5007162;28;20041;-82
2022/09/13 07:16:52;;;;;;;7.72;5.50;;;;;;;14.49;100.00;100096.72;4988808;28;20521;-81
2022/09/13 07:19:21;;;;;;;5.97;5.38;;;;;;;14.48;100.00;100095.00;4998063;28;20050;-81
2022/09/13 07:21:48;;;;;;;6.57;5.45;;;;;;;14.57;100.00;100094.56;4986958;28;20050;-82
2022/09/13 07:24:16;;;;;;;6.85;5.35;;;;;;;14.45;100.00;100095.13;4972059;28;20496;-82
2022/09/13 07:26:42;;;;;;;8.45;5.38;;;;;;;14.47;100.00;100089.75;4964097;28;20459;-82
2022/09/13 07:29:13;;;;;;;6.63;5.32;;;;;;;14.53;100.00;100098.28;4961208;28;20049;-81
2022/09/13 07:31:42;;;;;;;5.85;5.00;;;;;;;14.60;100.00;100091.75;4984531;28;20053;-81
2022/09/13 07:34:17;;;;;;;6.22;5.55;;;;;;;14.61;100.00;100084.66;4996409;28;20499;-82
2022/09/13 07:36:45;;;;;;;6.03;5.00;;;;;;;14.63;100.00;100090.78;4969460;28;20046;-82
2022/09/13 07:39:13;;;;;;;7.15;5.10;;;;;;;14.58;100.00;100098.09;4981884;28;20057;-82
2022/09/13 07:41:45;;;;;;;6.47;5.47;;;;;;;14.60;100.00;100089.09;4988985;28;20137;-82
2022/09/13 07:44:12;;;;;;;6.32;5.72;;;;;;;14.53;100.00;100082.34;4958594;28;20053;-81
2022/09/13 07:46:40;;;;;;;7.00;6.10;;;;;;;14.53;100.00;100079.69;4974027;28;20095;-82
2022/09/13 07:49:08;;;;;;;6.70;5.65;;;;;;;14.61;100.00;100088.16;4957749;28;20057;-81
2022/09/13 07:51:38;;;;;;;7.47;5.50;;;;;;;14.68;100.00;100093.22;5004954;28;20050;-82
2022/09/13 07:54:10;;;;;;;5.88;5.28;;;;;;;14.61;100.00;100089.97;4987119;28;20043;-80
2022/09/13 07:56:38;;;;;;;6.57;4.80;;;;;;;14.71;100.00;100106.34;4957153;28;20419;-80
2022/09/13 07:59:10;;;;;;;6.07;5.47;;;;;;;14.81;100.00;100105.00;4993638;28;20038;-82
2022/09/13 08:01:44;;;;;;;6.43;4.97;;;;;;;14.88;100.00;100101.09;4994254;28;20049;-80
2022/09/13 08:04:13;;;;;;;7.32;5.80;;;;;;;14.93;100.00;100088.47;4982836;28;20053;-81
2022/09/13 08:06:43;;;;;;;5.32;4.80;;;;;;;15.11;100.00;100087.59;4987530;28;20549;-81
2022/09/13 08:09:10;;;;;;;6.68;5.65;;;;;;;15.25;100.00;100088.72;4969694;28;20097;-81
2022/09/13 08:11:42;;;;;;;6.63;5.45;;;;;;;15.40;100.00;100091.50;4981568;28;20486;-81
2022/09/13 08:14:11;;;;;;;5.80;5.20;;;;;;;15.48;100.00;100093.78;4993713;28;20041;-81
2022/09/13 08:16:38;;;;;;;8.00;5.88;;;;;;;15.53;100.00;100089.06;4976165;28;20042;-80
2022/09/13 08:19:06;;;;;;;6.55;5.57;;;;;;;15.78;100.00;100091.41;4969744;28;20554;-80
2022/09/13 08:21:37;;;;;;;6.22;5.55;;;;;;;16.08;100.00;100090.78;5005359;28;20038;-81
2022/09/13 08:24:06;;;;;;;6.45;5.75;;;;;;;16.19;100.00;100094.59;4978022;28;20057;-80
2022/09/13 08:26:33;;;;;;;6.32;4.80;;;;;;;16.18;100.00;100106.19;5004966;28;20104;-81
2022/09/13 08:29:02;;;;;;;7.97;5.32;;;;;;;16.26;100.00;100114.66;4989063;28;20093;-82
2022/09/13 08:31:29;;;;;;;7.97;5.40;;;;;;;16.23;100.00;100119.28;4987885;28;20046;-82
2022/09/13 08:33:56;;;;;;;7.45;5.68;;;;;;;16.12;100.00;100119.81;4988416;28;20046;-81
2022/09/13 08:36:25;;;;;;;6.03;4.75;;;;;;;16.01;100.00;100127.53;4990525;28;20042;-80
2022/09/13 08:38:57;;;;;;;6.78;5.70;;;;;;;16.03;100.00;100121.16;4999031;28;20050;-81
2022/09/13 08:41:46;;;;;;;8.70;5.80;;;;;;;15.97;100.00;100113.47;5006927;28;20050;-81
2022/09/13 08:44:27;;;;;;;7.63;5.70;;;;;;;15.88;100.00;100118.41;4974826;28;20046;-80
2022/09/13 08:47:08;;;;;;;8.15;6.50;;;;;;;15.80;100.00;100104.63;4993384;28;20057;-80
2022/09/13 08:49:40;;;;;;;8.43;6.45;;;;;;;15.86;100.00;100109.66;5009966;28;20104;-80
2022/09/13 08:52:19;;;;;;;6.57;5.55;;;;;;;15.92;100.00;100088.03;4994117;28;20456;-80
2022/09/13 08:54:45;;;;;;;8.55;6.88;;;;;;;16.01;100.00;100095.56;4990900;28;20046;-80
2022/09/13 08:57:18;;;;;;;7.70;6.13;;;;;;;16.07;100.00;100084.59;4964392;28;20054;-80
2022/09/13 09:00:03;;;;;;;7.10;5.65;;;;;;;16.03;100.00;100091.84;4997757;28;20089;-81
2022/09/13 09:02:53;;;;;;;9.27;6.28;;;;;;;16.17;100.00;100088.47;4988802;28;20073;-82
2022/09/13 09:05:22;;;;;;;7.85;6.95;;;;;;;16.14;100.00;100095.75;5012623;28;20074;-80
2022/09/13 09:07:52;;;;;;;7.05;5.95;;;;;;;16.09;100.00;100113.81;4980164;28;20042;-81
2022/09/13 09:10:23;;;;;;;9.63;7.38;;;;;;;16.12;100.00;100101.19;4979303;28;20054;-80
2022/09/13 09:12:57;;;;;;;8.13;6.20;;;;;;;16.01;100.00;100109.72;5005366;28;20046;-80
2022/09/13 09:15:25;;;;;;;9.32;6.63;;;;;;;16.02;100.00;100107.94;4979276;28;20066;-80
2022/09/13 09:17:58;;;;;;;7.57;6.13;;;;;;;16.11;100.00;100103.94;4999387;28;20411;-80
2022/09/13 09:20:31;;;;;;;10.82;7.45;;;;;;;16.26;100.00;100088.00;4955303;28;20471;-80
2022/09/13 09:23:19;;;;;;;10.32;7.05;;;;;;;16.43;100.00;100102.22;4990611;28;20575;-83
2022/09/13 09:25:50;;;;;;;9.35;6.85;;;;;;;16.62;100.00;100100.28;4972581;28;20130;-83
2022/09/13 09:28:18;;;;;;;8.75;6.38;;;;;;;16.75;100.00;100092.53;4986976;28;20053;-83
2022/09/13 09:31:05;;;;;;;7.38;6.13;;;;;;;16.77;100.00;100096.81;4992228;28;20046;-81
2022/09/13 09:33:47;;;;;;;7.50;6.30;;;;;;;16.83;100.00;100096.50;4981550;28;20128;-83
2022/09/13 09:36:47;;;;;;;6.85;6.15;;;;;;;16.87;100.00;100086.50;4985175;28;20049;-82
2022/09/13 09:39:15;;;;;;;8.05;6.05;;;;;;;16.98;100.00;100070.75;4995402;28;20050;-83
2022/09/13 09:41:43;;;;;;;6.00;5.40;;;;;;;16.92;100.00;100063.09;4963609;28;20061;-83
2022/09/13 09:44:21;;;;;;;8.20;6.80;;;;;;;17.09;100.00;100057.69;4971477;28;20438;-83
2022/09/13 09:47:01;;;;;;;6.93;5.88;;;;;;;17.03;100.00;100065.16;4958223;28;20468;-83
2022/09/13 09:52:21;;;;;;;7.70;6.30;;;;;;;17.18;100.00;100064.28;4996909;28;20057;-83
2022/09/13 09:54:49;;;;;;;6.60;5.80;;;;;;;17.33;100.00;100062.56;4972134;28;20056;-84
2022/09/13 09:57:19;;;;;;;7.85;5.63;;;;;;;17.52;100.00;100075.69;4971508;28;20077;-81
2022/09/13 09:59:46;;;;;;;6.63;5.68;;;;;;;17.65;100.00;100076.69;4961304;28;20533;-82
2022/09/13 10:02:19;;;;;;;6.97;5.80;;;;;;;17.77;100.00;100083.16;4955701;28;20130;-81
2022/09/13 10:04:54;;;;;;;6.97;6.28;;;;;;;17.89;100.00;100083.28;4959439;28;20049;-82
2022/09/13 10:07:31;;;;;;;6.78;5.55;;;;;;;17.98;100.00;100076.50;4979656;28;20084;-82
2022/09/13 10:10:20;;;;;;;8.93;6.82;;;;;;;17.83;100.00;100072.97;5008810;28;20038;-82
2022/09/13 10:12:50;;;;;;;9.35;6.45;;;;;;;17.95;100.00;100066.03;4963643;28;20066;-81
2022/09/13 10:15:19;;;;;;;7.60;6.13;;;;;;;18.08;100.00;100063.47;4982760;28;20450;-81
2022/09/13 10:18:17;;;;;;;7.82;6.28;;;;;;;18.14;100.00;100071.09;4980356;28;20114;-81
2022/09/13 10:21:05;;;;;;;8.18;6.43;;;;;;;18.28;100.00;100065.78;4972034;28;20066;-80
2022/09/13 10:23:33;;;;;;;8.15;6.18;;;;;;;18.32;100.00;100063.75;4992081;28;20046;-82
2022/09/13 10:26:09;;;;;;;7.80;6.18;;;;;;;18.44;100.00;100061.19;4955709;28;20039;-83
2022/09/13 10:28:43;;;;;;;7.90;6.30;;;;;;;18.49;100.00;100063.56;4994270;28;20495;-82
2022/09/13 10:31:13;;;;;;;6.97;5.82;;;;;;;18.39;100.00;100052.59;4963775;28;20073;-81
2022/09/13 10:33:58;;;;;;;8.48;6.20;;;;;;;18.20;100.00;100052.03;4977610;28;20133;-82
2022/09/13 10:36:34;;;;;;;6.70;5.53;;;;;;;18.29;100.00;100057.66;4985869;28;20050;-81
2022/09/13 10:39:20;;;;;;;7.03;5.57;;;;;;;18.37;100.00;100057.19;4990458;28;20046;-83
2022/09/13 10:41:59;;;;;;;7.53;5.97;;;;;;;18.27;100.00;100062.25;4985726;28;20053;-81
2022/09/13 10:44:39;;;;;;;9.25;5.60;;;;;;;18.18;100.00;100053.94;4977891;28;20097;-83
2022/09/13 10:47:27;;;;;;;7.35;5.70;;;;;;;18.13;100.00;100045.31;4970423;28;20034;-82
2022/09/13 10:49:55;;;;;;;7.88;5.97;;;;;;;18.20;100.00;100039.50;4971350;28;20043;-82
2022/09/13 10:52:26;;;;;;;8.70;6.28;;;;;;;18.22;100.00;100042.09;4954724;28;20109;-83
2022/09/13 10:54:54;;;;;;;6.82;5.68;;;;;;;18.27;100.00;100046.19;4975273;28;20050;-82
2022/09/13 10:57:36;;;;;;;8.82;6.80;;;;;;;18.47;100.00;100041.41;4957362;28;20047;-82
2022/09/13 11:00:09;;;;;;;8.57;6.10;;;;;;;18.60;100.00;100034.34;4998796;28;20046;-82
2022/09/13 11:02:55;;;;;;;7.85;6.13;;;;;;;18.69;100.00;100028.44;4954875;28;20519;-82
2022/09/13 11:05:33;;;;;;;8.15;5.70;;;;;;;18.76;100.00;100026.22;4983771;28;20038;-82
2022/09/13 11:08:19;;;;;;;11.15;6.93;;;;;;;18.73;100.00;100032.63;4971704;28;20054;-82
2022/09/13 11:11:10;;;;;;;8.48;5.80;;;;;;;18.70;100.00;100031.97;4976789;28;20049;-81
2022/09/13 11:13:43;;;;;;;8.52;6.43;;;;;;;18.78;100.00;100032.34;5004396;28;20050;-83
2022/09/13 11:16:28;;;;;;;8.40;6.93;;;;;;;18.92;100.00;100035.00;5002893;28;20040;-82
2022/09/13 11:19:26;;;;;;;8.57;6.80;;;;;;;18.83;100.00;100033.78;4984297;28;20039;-82
2022/09/13 11:22:20;;;;;;;9.13;6.50;;;;;;;18.71;100.00;100049.75;4989506;28;20038;-79
2022/09/13 11:25:01;;;;;;;7.38;6.00;;;;;;;18.51;100.00;100046.50;4990449;28;20042;-81
2022/09/13 11:27:53;;;;;;;8.27;6.35;;;;;;;18.42;100.00;100049.75;4956575;28;20046;-79
2022/09/13 11:30:22;;;;;;;9.15;6.50;;;;;;;18.31;100.00;100048.69;4989575;28;20055;-79
2022/09/13 11:33:23;;;;;;;8.55;6.38;;;;;;;18.08;100.00;100052.78;4987764;28;20043;-80
2022/09/13 11:36:08;;;;;;;;;;;;;;;18.02;100.00;100059.34;4983924;28;20042;-80
2022/09/13 11:39:02;;;;;;;8.00;6.53;;;;;;;17.91;100.00;100054.66;4987321;28;19922;-80
2022/09/13 11:41:42;;;;;;;8.23;6.25;;;;;;;17.77;100.00;100053.78;4978120;28;20046;-80
2022/09/13 11:44:25;;;;;;;9.27;6.97;;;;;;;17.76;100.00;100058.25;4994515;28;20049;-80
2022/09/13 11:47:17;;;;;;;9.63;7.50;;;;;;;17.69;100.00;100059.53;4970171;28;20050;-82
2022/09/13 11:50:17;;;;;;;9.95;7.10;;;;;;;17.54;100.00;100063.09;4947051;28;20046;-81